sensor_id;sensor_type;location;lat;lon;timestamp;pressure;altitude;pressure_sealevel;temperature;humidity
3122;BME280;1571;52.524;14.104;2023-10-13T00:01:48;101020.88;;;12.96;100.00
3122;BME280;1571;52.524;14.104;2023-10-13T00:04:20;101029.72;;;13.09;100.00
3122;BME280;1571;52.524;14.104;2023-10-13T00:06:51;101012.16;;;13.07;100.00
3122;BME280;1571;52.524;14.104;2023-10-13T00:09:20;101007.22;;;12.88;100.00
3122;BME280;1571;52.524;14.104;2023-10-13T00:11:52;101010.44;;;12.93;100.00
3122;BME280;1571;52.524;14.104;2023-10-13T00:14:21;101008.50;;;12.95;100.00
3122;BME280;1571;52.524;14.104;2023-10-13T00:16:49;101007.66;;;13.07;100.00
3122;BME280;1571;52.524;14.104;2023-10-13T00:19:35;101012.38;;;13.04;100.00
3122;BME280;1571;52.524;14.104;2023-10-13T00:22:13;101020.03;;;13.08;100.00
3122;BME280;1571;52.524;14.104;2023-10-13T00:24:44;101017.78;;;13.02;100.00
3122;BME280;1571;52.524;14.104;2023-10-13T00:27:15;101010.13;;;13.10;100.00
3122;BME280;1571;52.524;14.104;2023-10-13T00:30:02;101016.19;;;13.00;100.00
3122;BME280;1571;52.524;14.104;2023-10-13T00:32:48;101018.13;;;13.10;100.00
3122;BME280;1571;52.524;14.104;2023-10-13T00:35:24;101010.44;;;13.19;100.00
3122;BME280;1571;52.524;14.104;2023-10-13T00:37:56;100989.53;;;13.25;100.00
3122;BME280;1571;52.524;14.104;2023-10-13T00:40:26;100997.41;;;13.01;100.00
3122;BME280;1571;52.524;14.104;2023-10-13T00:43:12;101002.97;;;13.24;100.00
3122;BME280;1571;52.524;14.104;2023-10-13T00:46:00;101008.75;;;13.18;100.00
3122;BME280;1571;52.524;14.104;2023-10-13T00:48:37;101004.47;;;13.02;100.00
3122;BME280;1571;52.524;14.104;2023-10-13T00:51:12;100995.94;;;12.97;100.00
3122;BME280;1571;52.524;14.104;2023-10-13T00:54:01;101008.06;;;13.01;100.00
3122;BME280;1571;52.524;14.104;2023-10-13T00:56:29;101007.34;;;12.99;100.00
3122;BME280;1571;52.524;14.104;2023-10-13T00:58:59;101002.56;;;13.04;100.00
3122;BME280;1571;52.524;14.104;2023-10-13T01:01:29;100999.34;;;12.99;100.00
3122;BME280;1571;52.524;14.104;2023-10-13T01:04:01;101007.75;;;12.93;100.00
3122;BME280;1571;52.524;14.104;2023-10-13T01:06:33;101013.00;;;13.07;100.00
3122;BME280;1571;52.524;14.104;2023-10-13T01:09:06;101005.72;;;12.97;100.00
3122;BME280;1571;52.524;14.104;2023-10-13T01:11:44;100994.03;;;12.99;100.00
3122;BME280;1571;52.524;14.104;2023-10-13T01:14:14;100993.34;;;12.83;100.00
3122;BME280;1571;52.524;14.104;2023-10-13T01:16:45;100994.53;;;12.91;100.00
3122;BME280;1571;52.524;14.104;2023-10-13T01:19:14;100993.69;;;12.91;100.00
3122;BME280;1571;52.524;14.104;2023-10-13T01:21:48;100998.91;;;12.80;100.00
3122;BME280;1571;52.524;14.104;2023-10-13T01:24:17;101004.00;;;12.83;100.00
3122;BME280;1571;52.524;14.104;2023-10-13T01:26:53;101005.59;;;12.73;100.00
3122;BME280;1571;52.524;14.104;2023-10-13T01:29:20;101010.22;;;12.96;100.00
3122;BME280;1571;52.524;14.104;2023-10-13T01:31:53;101006.78;;;12.94;100.00
3122;BME280;1571;52.524;14.104;2023-10-13T01:34:21;100981.88;;;12.95;100.00
3122;BME280;1571;52.524;14.104;2023-10-13T01:36:50;100975.44;;;12.85;100.00
3122;BME280;1571;52.524;14.104;2023-10-13T01:39:22;100969.72;;;12.91;100.00
3122;BME280;1571;52.524;14.104;2023-10-13T01:41:53;100968.97;;;12.89;100.00
3122;BME280;1571;52.524;14.104;2023-10-13T01:44:24;100971.63;;;12.89;100.00
3122;BME280;1571;52.524;14.104;2023-10-13T01:46:52;100965.09;;;12.80;100.00
3122;BME280;1571;52.524;14.104;2023-10-13T01:49:21;100967.53;;;12.83;100.00
3122;BME280;1571;52.524;14.104;2023-10-13T01:51:51;100958.41;;;12.75;100.00
3122;BME280;1571;52.524;14.104;2023-10-13T01:54:20;100965.41;;;12.76;100.00
3122;BME280;1571;52.524;14.104;2023-10-13T01:56:49;100963.38;;;12.66;100.00
3122;BME280;1571;52.524;14.104;2023-10-13T01:59:17;100967.41;;;12.59;100.00
3122;BME280;1571;52.524;14.104;2023-10-13T02:01:46;100979.47;;;12.65;100.00
3122;BME280;1571;52.524;14.104;2023-10-13T02:04:13;100972.66;;;12.74;100.00
3122;BME280;1571;52.524;14.104;2023-10-13T02:06:42;100973.94;;;12.68;100.00
3122;BME280;1571;52.524;14.104;2023-10-13T02:09:10;100970.63;;;12.64;100.00
3122;BME280;1571;52.524;14.104;2023-10-13T02:11:43;100967.75;;;12.67;100.00
3122;BME280;1571;52.524;14.104;2023-10-13T02:14:13;100965.06;;;12.67;100.00
3122;BME280;1571;52.524;14.104;2023-10-13T02:16:43;100961.59;;;12.80;100.00
3122;BME280;1571;52.524;14.104;2023-10-13T02:19:17;100966.44;;;12.60;100.00
3122;BME280;1571;52.524;14.104;2023-10-13T02:21:47;100956.78;;;12.72;100.00
3122;BME280;1571;52.524;14.104;2023-10-13T02:24:25;100962.63;;;12.64;100.00
3122;BME280;1571;52.524;14.104;2023-10-13T02:26:59;100950.69;;;12.57;100.00
3122;BME280;1571;52.524;14.104;2023-10-13T02:29:32;100942.81;;;12.68;100.00
3122;BME280;1571;52.524;14.104;2023-10-13T02:32:06;100957.31;;;12.64;100.00
3122;BME280;1571;52.524;14.104;2023-10-13T02:34:40;100966.13;;;12.65;100.00
3122;BME280;1571;52.524;14.104;2023-10-13T02:37:11;100962.09;;;12.72;100.00
3122;BME280;1571;52.524;14.104;2023-10-13T02:39:40;100958.59;;;12.71;100.00
3122;BME280;1571;52.524;14.104;2023-10-13T02:42:10;100952.19;;;12.61;100.00
3122;BME280;1571;52.524;14.104;2023-10-13T02:44:50;100963.47;;;12.65;100.00
3122;BME280;1571;52.524;14.104;2023-10-13T02:47:18;100953.25;;;12.71;100.00
3122;BME280;1571;52.524;14.104;2023-10-13T02:49:47;100953.13;;;12.60;100.00
3122;BME280;1571;52.524;14.104;2023-10-13T02:52:15;100948.78;;;12.72;100.00
3122;BME280;1571;52.524;14.104;2023-10-13T02:54:43;100949.44;;;12.76;100.00
3122;BME280;1571;52.524;14.104;2023-10-13T02:57:15;100947.63;;;12.76;100.00
3122;BME280;1571;52.524;14.104;2023-10-13T02:59:44;100945.84;;;12.77;100.00
3122;BME280;1571;52.524;14.104;2023-10-13T03:02:14;100946.13;;;12.85;100.00
3122;BME280;1571;52.524;14.104;2023-10-13T03:04:52;100950.06;;;12.92;100.00
3122;BME280;1571;52.524;14.104;2023-10-13T03:07:26;100941.75;;;12.97;100.00
3122;BME280;1571;52.524;14.104;2023-10-13T03:09:58;100937.63;;;12.93;100.00
3122;BME280;1571;52.524;14.104;2023-10-13T03:12:39;100931.56;;;12.90;100.00
3122;BME280;1571;52.524;14.104;2023-10-13T03:15:09;100922.38;;;12.82;100.00
3122;BME280;1571;52.524;14.104;2023-10-13T03:17:40;100931.53;;;12.78;100.00
3122;BME280;1571;52.524;14.104;2023-10-13T03:20:12;100931.97;;;12.84;100.00
3122;BME280;1571;52.524;14.104;2023-10-13T03:22:41;100923.31;;;12.81;100.00
3122;BME280;1571;52.524;14.104;2023-10-13T03:25:12;100913.97;;;12.75;100.00
3122;BME280;1571;52.524;14.104;2023-10-13T03:27:46;100922.56;;;12.79;100.00
3122;BME280;1571;52.524;14.104;2023-10-13T03:30:29;100927.91;;;12.79;100.00
3122;BME280;1571;52.524;14.104;2023-10-13T03:33:02;100925.78;;;12.84;100.00
3122;BME280;1571;52.524;14.104;2023-10-13T03:35:34;100918.44;;;12.87;100.00
3122;BME280;1571;52.524;14.104;2023-10-13T03:38:08;100911.91;;;12.79;100.00
3122;BME280;1571;52.524;14.104;2023-10-13T03:40:44;100924.06;;;12.83;100.00
3122;BME280;1571;52.524;14.104;2023-10-13T03:43:35;100910.44;;;12.87;100.00
3122;BME280;1571;52.524;14.104;2023-10-13T03:46:12;100905.31;;;12.71;100.00
3122;BME280;1571;52.524;14.104;2023-10-13T03:48:41;100912.38;;;12.73;100.00
3122;BME280;1571;52.524;14.104;2023-10-13T03:51:21;100911.06;;;12.78;100.00
3122;BME280;1571;52.524;14.104;2023-10-13T03:53:58;100906.81;;;12.76;100.00
3122;BME280;1571;52.524;14.104;2023-10-13T03:56:35;100896.25;;;12.74;100.00
3122;BME280;1571;52.524;14.104;2023-10-13T03:59:09;100907.34;;;12.81;100.00
3122;BME280;1571;52.524;14.104;2023-10-13T04:01:47;100906.16;;;12.85;100.00
3122;BME280;1571;52.524;14.104;2023-10-13T04:04:25;100904.25;;;12.87;100.00
3122;BME280;1571;52.524;14.104;2023-10-13T04:07:10;100900.09;;;12.83;100.00
3122;BME280;1571;52.524;14.104;2023-10-13T04:10:07;100909.50;;;12.88;100.00
3122;BME280;1571;52.524;14.104;2023-10-13T04:13:01;100918.34;;;12.89;100.00
3122;BME280;1571;52.524;14.104;2023-10-13T04:15:48;100913.53;;;12.94;100.00
3122;BME280;1571;52.524;14.104;2023-10-13T04:18:42;100913.00;;;12.89;100.00
3122;BME280;1571;52.524;14.104;2023-10-13T04:21:35;100917.03;;;12.95;100.00
3122;BME280;1571;52.524;14.104;2023-10-13T04:24:22;100905.75;;;13.04;100.00
3122;BME280;1571;52.524;14.104;2023-10-13T04:27:05;100907.44;;;12.92;100.00
3122;BME280;1571;52.524;14.104;2023-10-13T04:29:50;100913.44;;;12.96;100.00
3122;BME280;1571;52.524;14.104;2023-10-13T04:32:29;100914.19;;;13.10;100.00
3122;BME280;1571;52.524;14.104;2023-10-13T04:35:00;100917.47;;;13.14;100.00
3122;BME280;1571;52.524;14.104;2023-10-13T04:37:37;100906.81;;;13.01;100.00
3122;BME280;1571;52.524;14.104;2023-10-13T04:40:18;100905.44;;;13.08;100.00
3122;BME280;1571;52.524;14.104;2023-10-13T04:42:52;100909.78;;;13.09;100.00
3122;BME280;1571;52.524;14.104;2023-10-13T04:45:24;100909.38;;;13.03;100.00
3122;BME280;1571;52.524;14.104;2023-10-13T04:48:22;100904.66;;;13.19;100.00
3122;BME280;1571;52.524;14.104;2023-10-13T04:51:00;100899.97;;;13.10;100.00
3122;BME280;1571;52.524;14.104;2023-10-13T04:53:42;100892.72;;;13.12;100.00
3122;BME280;1571;52.524;14.104;2023-10-13T04:56:24;100903.94;;;13.17;100.00
3122;BME280;1571;52.524;14.104;2023-10-13T04:59:10;100899.97;;;13.23;100.00
3122;BME280;1571;52.524;14.104;2023-10-13T05:02:02;100878.13;;;13.18;100.00
3122;BME280;1571;52.524;14.104;2023-10-13T05:05:00;100884.19;;;13.20;100.00
3122;BME280;1571;52.524;14.104;2023-10-13T05:07:49;100889.72;;;13.17;100.00
3122;BME280;1571;52.524;14.104;2023-10-13T05:10:36;100884.63;;;13.13;100.00
3122;BME280;1571;52.524;14.104;2023-10-13T05:13:28;100889.72;;;13.17;100.00
3122;BME280;1571;52.524;14.104;2023-10-13T05:16:14;100898.47;;;13.19;100.00
3122;BME280;1571;52.524;14.104;2023-10-13T05:19:00;100889.31;;;13.23;100.00
3122;BME280;1571;52.524;14.104;2023-10-13T05:21:47;100900.31;;;13.31;100.00
3122;BME280;1571;52.524;14.104;2023-10-13T05:24:33;100908.94;;;13.22;100.00
3122;BME280;1571;52.524;14.104;2023-10-13T05:27:19;100899.13;;;13.35;100.00
3122;BME280;1571;52.524;14.104;2023-10-13T05:30:06;100896.13;;;13.27;100.00
3122;BME280;1571;52.524;14.104;2023-10-13T05:32:52;100896.59;;;13.33;100.00
3122;BME280;1571;52.524;14.104;2023-10-13T05:35:38;100892.41;;;13.29;100.00
3122;BME280;1571;52.524;14.104;2023-10-13T05:38:25;100906.59;;;13.30;100.00
3122;BME280;1571;52.524;14.104;2023-10-13T05:41:11;100911.47;;;13.23;100.00
3122;BME280;1571;52.524;14.104;2023-10-13T05:43:57;100917.34;;;13.41;100.00
3122;BME280;1571;52.524;14.104;2023-10-13T05:46:43;100910.53;;;13.37;100.00
3122;BME280;1571;52.524;14.104;2023-10-13T05:49:28;100912.75;;;13.43;100.00
3122;BME280;1571;52.524;14.104;2023-10-13T05:52:17;100913.09;;;13.39;100.00
3122;BME280;1571;52.524;14.104;2023-10-13T05:55:09;100923.59;;;13.53;100.00
3122;BME280;1571;52.524;14.104;2023-10-13T05:57:55;100915.00;;;13.49;100.00
3122;BME280;1571;52.524;14.104;2023-10-13T06:00:41;100923.00;;;13.49;100.00
3122;BME280;1571;52.524;14.104;2023-10-13T06:03:27;100915.28;;;13.58;100.00
3122;BME280;1571;52.524;14.104;2023-10-13T06:06:13;100911.91;;;13.56;100.00
3122;BME280;1571;52.524;14.104;2023-10-13T06:08:59;100920.00;;;13.54;100.00
3122;BME280;1571;52.524;14.104;2023-10-13T06:11:47;100908.16;;;13.58;100.00
3122;BME280;1571;52.524;14.104;2023-10-13T06:14:33;100905.88;;;13.65;100.00
3122;BME280;1571;52.524;14.104;2023-10-13T06:17:19;100916.50;;;13.78;100.00
3122;BME280;1571;52.524;14.104;2023-10-13T06:20:07;100895.50;;;13.97;100.00
3122;BME280;1571;52.524;14.104;2023-10-13T06:22:52;100882.31;;;14.07;100.00
3122;BME280;1571;52.524;14.104;2023-10-13T06:25:38;100863.72;;;14.29;100.00
3122;BME280;1571;52.524;14.104;2023-10-13T06:28:25;100849.06;;;14.35;100.00
3122;BME280;1571;52.524;14.104;2023-10-13T06:31:10;100849.19;;;14.45;100.00
3122;BME280;1571;52.524;14.104;2023-10-13T06:33:49;100830.97;;;14.50;100.00
3122;BME280;1571;52.524;14.104;2023-10-13T06:36:17;100833.44;;;14.53;100.00
3122;BME280;1571;52.524;14.104;2023-10-13T06:38:47;100820.72;;;14.68;100.00
3122;BME280;1571;52.524;14.104;2023-10-13T06:41:22;100817.47;;;14.75;100.00
3122;BME280;1571;52.524;14.104;2023-10-13T06:44:08;100798.13;;;14.72;100.00
3122;BME280;1571;52.524;14.104;2023-10-13T06:46:43;100797.19;;;14.84;100.00
3122;BME280;1571;52.524;14.104;2023-10-13T06:49:11;100796.44;;;14.82;100.00
3122;BME280;1571;52.524;14.104;2023-10-13T06:51:41;100787.06;;;14.99;100.00
3122;BME280;1571;52.524;14.104;2023-10-13T06:54:09;100770.53;;;15.05;100.00
3122;BME280;1571;52.524;14.104;2023-10-13T06:56:47;100755.09;;;15.20;100.00
3122;BME280;1571;52.524;14.104;2023-10-13T06:59:21;100746.44;;;15.16;100.00
3122;BME280;1571;52.524;14.104;2023-10-13T07:01:54;100750.28;;;15.35;100.00
3122;BME280;1571;52.524;14.104;2023-10-13T07:04:46;100744.34;;;15.31;100.00
3122;BME280;1571;52.524;14.104;2023-10-13T07:07:15;100736.38;;;15.52;100.00
3122;BME280;1571;52.524;14.104;2023-10-13T07:09:43;100722.28;;;15.50;100.00
3122;BME280;1571;52.524;14.104;2023-10-13T07:12:16;100711.22;;;15.76;100.00
3122;BME280;1571;52.524;14.104;2023-10-13T07:14:47;100707.78;;;15.85;100.00
3122;BME280;1571;52.524;14.104;2023-10-13T07:17:19;100702.00;;;16.11;100.00
3122;BME280;1571;52.524;14.104;2023-10-13T07:19:52;100685.16;;;16.20;100.00
3122;BME280;1571;52.524;14.104;2023-10-13T07:22:32;100683.31;;;16.20;100.00
3122;BME280;1571;52.524;14.104;2023-10-13T07:25:07;100667.69;;;16.26;100.00
3122;BME280;1571;52.524;14.104;2023-10-13T07:27:42;100671.19;;;16.57;100.00
3122;BME280;1571;52.524;14.104;2023-10-13T07:30:12;100660.47;;;16.57;100.00
3122;BME280;1571;52.524;14.104;2023-10-13T07:32:41;100651.34;;;16.69;100.00
3122;BME280;1571;52.524;14.104;2023-10-13T07:35:15;100644.19;;;16.79;100.00
3122;BME280;1571;52.524;14.104;2023-10-13T07:37:47;100635.25;;;16.69;100.00
3122;BME280;1571;52.524;14.104;2023-10-13T07:40:16;100633.84;;;16.75;100.00
3122;BME280;1571;52.524;14.104;2023-10-13T07:43:07;100632.72;;;16.77;100.00
3122;BME280;1571;52.524;14.104;2023-10-13T07:45:40;100614.44;;;16.92;100.00
3122;BME280;1571;52.524;14.104;2023-10-13T07:48:10;100614.16;;;16.85;100.00
3122;BME280;1571;52.524;14.104;2023-10-13T07:50:46;100610.78;;;17.03;100.00
3122;BME280;1571;52.524;14.104;2023-10-13T07:53:16;100610.22;;;17.19;100.00
3122;BME280;1571;52.524;14.104;2023-10-13T07:55:50;100603.00;;;17.00;100.00
3122;BME280;1571;52.524;14.104;2023-10-13T07:58:23;100601.72;;;17.04;100.00
3122;BME280;1571;52.524;14.104;2023-10-13T08:00:54;100601.88;;;16.93;100.00
3122;BME280;1571;52.524;14.104;2023-10-13T08:03:34;100594.69;;;17.03;100.00
3122;BME280;1571;52.524;14.104;2023-10-13T08:06:13;100599.50;;;17.09;100.00
3122;BME280;1571;52.524;14.104;2023-10-13T08:08:48;100592.13;;;17.11;100.00
3122;BME280;1571;52.524;14.104;2023-10-13T08:11:22;100583.25;;;17.11;100.00
3122;BME280;1571;52.524;14.104;2023-10-13T08:14:00;100586.91;;;17.19;100.00
3122;BME280;1571;52.524;14.104;2023-10-13T08:16:58;100582.66;;;17.26;100.00
3122;BME280;1571;52.524;14.104;2023-10-13T08:19:29;100585.91;;;17.30;100.00
3122;BME280;1571;52.524;14.104;2023-10-13T08:22:09;100586.22;;;17.27;100.00
3122;BME280;1571;52.524;14.104;2023-10-13T08:24:53;100589.59;;;17.19;100.00
3122;BME280;1571;52.524;14.104;2023-10-13T08:27:23;100588.03;;;17.26;100.00
3122;BME280;1571;52.524;14.104;2023-10-13T08:30:02;100579.97;;;17.46;100.00
3122;BME280;1571;52.524;14.104;2023-10-13T08:32:50;100585.47;;;17.54;100.00
3122;BME280;1571;52.524;14.104;2023-10-13T08:35:24;100575.69;;;17.53;100.00
3122;BME280;1571;52.524;14.104;2023-10-13T08:38:03;100564.09;;;17.62;100.00
3122;BME280;1571;52.524;14.104;2023-10-13T08:40:58;100561.84;;;17.67;100.00
3122;BME280;1571;52.524;14.104;2023-10-13T08:43:44;100555.94;;;17.54;100.00
3122;BME280;1571;52.524;14.104;2023-10-13T08:46:19;100557.28;;;17.78;100.00
3122;BME280;1571;52.524;14.104;2023-10-13T08:48:58;100548.50;;;17.85;100.00
3122;BME280;1571;52.524;14.104;2023-10-13T08:51:43;100531.84;;;17.82;100.00
3122;BME280;1571;52.524;14.104;2023-10-13T08:54:14;100550.91;;;17.79;100.00
3122;BME280;1571;52.524;14.104;2023-10-13T08:57:02;100542.41;;;17.93;100.00
3122;BME280;1571;52.524;14.104;2023-10-13T09:00:00;100545.09;;;17.93;100.00
3122;BME280;1571;52.524;14.104;2023-10-13T09:02:42;100541.41;;;17.94;100.00
3122;BME280;1571;52.524;14.104;2023-10-13T09:05:49;100529.75;;;18.03;100.00
3122;BME280;1571;52.524;14.104;2023-10-13T09:08:29;100537.16;;;18.01;100.00
3122;BME280;1571;52.524;14.104;2023-10-13T09:11:03;100529.72;;;18.13;100.00
3122;BME280;1571;52.524;14.104;2023-10-13T09:13:38;100526.47;;;18.09;100.00
3122;BME280;1571;52.524;14.104;2023-10-13T09:16:12;100533.31;;;18.04;100.00
3122;BME280;1571;52.524;14.104;2023-10-13T09:19:09;100522.88;;;18.19;100.00
3122;BME280;1571;52.524;14.104;2023-10-13T09:21:41;100517.69;;;18.17;100.00
3122;BME280;1571;52.524;14.104;2023-10-13T09:24:14;100517.13;;;18.14;100.00
3122;BME280;1571;52.524;14.104;2023-10-13T09:26:54;100512.78;;;18.13;100.00
3122;BME280;1571;52.524;14.104;2023-10-13T09:29:25;100505.69;;;18.12;100.00
3122;BME280;1571;52.524;14.104;2023-10-13T09:32:03;100494.69;;;18.05;100.00
3122;BME280;1571;52.524;14.104;2023-10-13T09:34:31;100501.16;;;18.12;100.00
3122;BME280;1571;52.524;14.104;2023-10-13T09:37:10;100499.53;;;18.01;100.00
3122;BME280;1571;52.524;14.104;2023-10-13T09:39:38;100494.75;;;17.95;100.00
3122;BME280;1571;52.524;14.104;2023-10-13T09:42:15;100491.28;;;18.13;100.00
3122;BME280;1571;52.524;14.104;2023-10-13T09:44:46;100498.31;;;18.14;100.00
3122;BME280;1571;52.524;14.104;2023-10-13T09:47:28;100502.63;;;18.06;100.00
3122;BME280;1571;52.524;14.104;2023-10-13T09:49:59;100499.81;;;17.98;100.00
3122;BME280;1571;52.524;14.104;2023-10-13T09:52:35;100494.06;;;17.93;100.00
3122;BME280;1571;52.524;14.104;2023-10-13T09:55:20;100494.38;;;17.90;100.00
3122;BME280;1571;52.524;14.104;2023-10-13T09:58:04;100492.47;;;18.00;100.00
3122;BME280;1571;52.524;14.104;2023-10-13T10:00:43;100486.13;;;18.01;100.00
3122;BME280;1571;52.524;14.104;2023-10-13T10:03:15;100479.84;;;18.10;100.00
3122;BME280;1571;52.524;14.104;2023-10-13T10:05:59;100468.88;;;18.22;100.00
3122;BME280;1571;52.524;14.104;2023-10-13T10:08:33;100465.09;;;18.15;100.00
3122;BME280;1571;52.524;14.104;2023-10-13T10:11:26;100456.34;;;18.13;100.00
3122;BME280;1571;52.524;14.104;2023-10-13T10:14:06;100456.97;;;18.24;100.00
3122;BME280;1571;52.524;14.104;2023-10-13T10:16:45;100444.53;;;18.23;100.00
3122;BME280;1571;52.524;14.104;2023-10-13T10:19:16;100437.25;;;18.34;100.00
3122;BME280;1571;52.524;14.104;2023-10-13T10:21:46;100426.72;;;18.22;100.00
3122;BME280;1571;52.524;14.104;2023-10-13T10:24:21;100420.97;;;18.53;100.00
3122;BME280;1571;52.524;14.104;2023-10-13T10:26:57;100414.69;;;18.44;100.00
3122;BME280;1571;52.524;14.104;2023-10-13T10:29:25;100409.34;;;18.52;100.00
3122;BME280;1571;52.524;14.104;2023-10-13T10:31:53;100395.41;;;18.49;100.00
3122;BME280;1571;52.524;14.104;2023-10-13T10:34:30;100402.81;;;18.55;100.00
3122;BME280;1571;52.524;14.104;2023-10-13T10:37:00;100403.47;;;18.49;100.00
3122;BME280;1571;52.524;14.104;2023-10-13T10:39:36;100402.75;;;18.47;100.00
3122;BME280;1571;52.524;14.104;2023-10-13T10:42:13;100401.16;;;18.36;100.00
3122;BME280;1571;52.524;14.104;2023-10-13T10:44:49;100396.63;;;18.19;100.00
3122;BME280;1571;52.524;14.104;2023-10-13T10:47:22;100399.03;;;18.22;100.00
3122;BME280;1571;52.524;14.104;2023-10-13T10:50:00;100392.50;;;18.06;100.00
3122;BME280;1571;52.524;14.104;2023-10-13T10:52:46;100396.34;;;18.04;100.00
3122;BME280;1571;52.524;14.104;2023-10-13T10:55:20;100394.50;;;17.77;100.00
3122;BME280;1571;52.524;14.104;2023-10-13T10:57:58;100393.06;;;17.82;100.00
3122;BME280;1571;52.524;14.104;2023-10-13T11:00:28;100402.91;;;17.64;100.00
3122;BME280;1571;52.524;14.104;2023-10-13T11:03:08;100407.56;;;17.62;100.00
3122;BME280;1571;52.524;14.104;2023-10-13T11:05:45;100411.50;;;17.67;100.00
3122;BME280;1571;52.524;14.104;2023-10-13T11:08:24;100396.50;;;17.75;100.00
3122;BME280;1571;52.524;14.104;2023-10-13T11:10:59;100400.41;;;17.80;100.00
3122;BME280;1571;52.524;14.104;2023-10-13T11:13:40;100400.16;;;17.83;100.00
3122;BME280;1571;52.524;14.104;2023-10-13T11:16:19;100409.34;;;17.71;100.00
3122;BME280;1571;52.524;14.104;2023-10-13T11:19:00;100417.47;;;17.61;100.00
3122;BME280;1571;52.524;14.104;2023-10-13T11:21:29;100411.28;;;17.51;100.00
3122;BME280;1571;52.524;14.104;2023-10-13T11:23:58;100413.69;;;17.54;100.00
3122;BME280;1571;52.524;14.104;2023-10-13T11:26:37;100405.66;;;17.54;100.00
3122;BME280;1571;52.524;14.104;2023-10-13T11:29:16;100397.69;;;17.62;100.00
3122;BME280;1571;52.524;14.104;2023-10-13T11:31:47;100405.91;;;17.61;100.00
3122;BME280;1571;52.524;14.104;2023-10-13T11:34:21;100390.69;;;17.69;100.00
3122;BME280;1571;52.524;14.104;2023-10-13T11:36:50;100381.53;;;17.72;100.00
3122;BME280;1571;52.524;14.104;2023-10-13T11:39:18;100377.81;;;17.83;100.00
3122;BME280;1571;52.524;14.104;2023-10-13T11:41:53;100390.41;;;18.00;100.00
3122;BME280;1571;52.524;14.104;2023-10-13T11:44:22;100376.00;;;18.01;100.00
3122;BME280;1571;52.524;14.104;2023-10-13T11:46:53;100355.13;;;18.13;100.00
3122;BME280;1571;52.524;14.104;2023-10-13T11:49:35;100368.47;;;18.23;100.00
3122;BME280;1571;52.524;14.104;2023-10-13T11:52:04;100360.03;;;18.18;100.00
3122;BME280;1571;52.524;14.104;2023-10-13T11:54:52;100354.88;;;18.06;100.00
3122;BME280;1571;52.524;14.104;2023-10-13T11:57:22;100348.69;;;17.88;100.00
3122;BME280;1571;52.524;14.104;2023-10-13T11:59:51;100359.78;;;17.93;100.00
3122;BME280;1571;52.524;14.104;2023-10-13T12:02:43;100357.09;;;17.93;100.00
3122;BME280;1571;52.524;14.104;2023-10-13T12:05:25;100366.16;;;17.92;100.00
3122;BME280;1571;52.524;14.104;2023-10-13T12:08:05;100345.91;;;17.98;100.00
3122;BME280;1571;52.524;14.104;2023-10-13T12:10:46;100343.00;;;17.91;100.00
3122;BME280;1571;52.524;14.104;2023-10-13T12:13:28;100331.31;;;18.00;100.00
3122;BME280;1571;52.524;14.104;2023-10-13T12:15:57;100328.16;;;18.05;100.00
3122;BME280;1571;52.524;14.104;2023-10-13T12:18:25;100324.41;;;18.16;100.00
3122;BME280;1571;52.524;14.104;2023-10-13T12:23:46;100310.69;;;18.45;100.00
3122;BME280;1571;52.524;14.104;2023-10-13T12:26:14;100303.69;;;18.52;100.00
3122;BME280;1571;52.524;14.104;2023-10-13T12:28:48;100291.47;;;18.58;100.00
3122;BME280;1571;52.524;14.104;2023-10-13T12:31:19;100286.09;;;18.58;100.00
3122;BME280;1571;52.524;14.104;2023-10-13T12:33:54;100267.31;;;18.66;100.00
3122;BME280;1571;52.524;14.104;2023-10-13T12:36:24;100279.34;;;18.54;100.00
3122;BME280;1571;52.524;14.104;2023-10-13T12:39:08;100278.91;;;18.66;100.00
3122;BME280;1571;52.524;14.104;2023-10-13T12:42:02;100264.97;;;18.71;100.00
3122;BME280;1571;52.524;14.104;2023-10-13T12:44:49;100261.94;;;18.66;100.00
3122;BME280;1571;52.524;14.104;2023-10-13T12:47:35;100259.59;;;18.71;100.00
3122;BME280;1571;52.524;14.104;2023-10-13T12:50:23;100252.53;;;18.70;100.00
3122;BME280;1571;52.524;14.104;2023-10-13T12:53:01;100238.03;;;18.81;100.00
3122;BME280;1571;52.524;14.104;2023-10-13T12:55:30;100229.97;;;18.89;100.00
3122;BME280;1571;52.524;14.104;2023-10-13T12:57:58;100231.22;;;19.03;100.00
3122;BME280;1571;52.524;14.104;2023-10-13T13:00:28;100225.16;;;19.09;100.00
3122;BME280;1571;52.524;14.104;2023-10-13T13:03:00;100221.47;;;19.18;100.00
3122;BME280;1571;52.524;14.104;2023-10-13T13:05:38;100204.50;;;19.18;100.00
3122;BME280;1571;52.524;14.104;2023-10-13T13:08:12;100210.03;;;19.16;100.00
3122;BME280;1571;52.524;14.104;2023-10-13T13:10:49;100199.28;;;19.16;100.00
3122;BME280;1571;52.524;14.104;2023-10-13T13:13:18;100195.09;;;19.22;100.00
3122;BME280;1571;52.524;14.104;2023-10-13T13:15:53;100200.97;;;19.17;100.00
3122;BME280;1571;52.524;14.104;2023-10-13T13:18:21;100191.59;;;19.38;100.00
3122;BME280;1571;52.524;14.104;2023-10-13T13:20:49;100194.63;;;19.34;100.00
3122;BME280;1571;52.524;14.104;2023-10-13T13:23:21;100197.81;;;19.30;100.00
3122;BME280;1571;52.524;14.104;2023-10-13T13:25:53;100184.34;;;19.38;100.00
3122;BME280;1571;52.524;14.104;2023-10-13T13:28:25;100175.81;;;19.51;100.00
3122;BME280;1571;52.524;14.104;2023-10-13T13:30:57;100169.06;;;19.30;100.00
3122;BME280;1571;52.524;14.104;2023-10-13T13:33:26;100169.41;;;19.44;100.00
3122;BME280;1571;52.524;14.104;2023-10-13T13:36:00;100150.53;;;19.52;100.00
3122;BME280;1571;52.524;14.104;2023-10-13T13:38:28;100136.59;;;19.56;100.00
3122;BME280;1571;52.524;14.104;2023-10-13T13:40:59;100138.81;;;19.69;100.00
3122;BME280;1571;52.524;14.104;2023-10-13T13:43:29;100138.44;;;19.81;100.00